Time;durP1;ratioP1;P1;durP2;ratioP2;P2;SDS_P1;SDS_P2;PMS_P1;PMS_P2;Temp;Humidity;BMP_temperature;BMP_pressure;BME280_temperature;BME280_humidity;BME280_pressure;Samples;Min_cycle;Max_cycle;Signal;HPM_P1;HPM_P2
2022/03/23 00:01:29;;;;;;;13.20;5.47;;;1.80;99.90;;;;;;5091372;28;20150;-77
2022/03/23 00:03:55;;;;;;;13.48;5.75;;;1.80;99.90;;;;;;5092303;28;20103;-77
2022/03/23 00:06:21;;;;;;;20.60;5.95;;;1.70;99.90;;;;;;5091545;28;20273;-77
2022/03/23 00:08:47;;;;;;;16.98;6.18;;;1.70;99.90;;;;;;5091479;28;20020;-77
2022/03/23 00:11:13;;;;;;;18.50;6.47;;;1.70;99.90;;;;;;5091713;28;20020;-78
2022/03/23 00:13:39;;;;;;;20.38;7.32;;;1.70;99.90;;;;;;5073398;28;20165;-77
2022/03/23 00:16:05;;;;;;;14.05;5.95;;;1.60;99.90;;;;;;5090877;28;20020;-77
2022/03/23 00:18:32;;;;;;;15.57;6.95;;;1.60;99.90;;;;;;5091359;28;20811;-76
2022/03/23 00:20:57;;;;;;;14.90;6.45;;;1.70;99.90;;;;;;5089806;28;20477;-77
2022/03/23 00:23:23;;;;;;;15.48;6.95;;;1.80;99.90;;;;;;5088289;28;20074;-77
2022/03/23 00:25:49;;;;;;;17.85;6.68;;;1.90;99.90;;;;;;5089501;28;20170;-77
2022/03/23 00:28:14;;;;;;;13.15;7.13;;;1.90;99.90;;;;;;5089341;28;20496;-76
2022/03/23 00:30:40;;;;;;;15.13;5.65;;;2.00;99.90;;;;;;5089414;28;20023;-77
2022/03/23 00:33:06;;;;;;;10.43;5.68;;;2.00;99.90;;;;;;5089355;28;20087;-77
2022/03/23 00:35:32;;;;;;;16.75;6.88;;;1.90;99.90;;;;;;5089811;28;20039;-77
2022/03/23 00:37:58;;;;;;;16.17;5.88;;;1.80;99.90;;;;;;5090613;28;20020;-77
2022/03/23 00:40:25;;;;;;;22.90;6.57;;;1.60;99.90;;;;;;5072911;28;20028;-78
2022/03/23 00:42:51;;;;;;;14.45;5.47;;;1.60;99.90;;;;;;5091323;28;20020;-79
2022/03/23 00:45:17;;;;;;;10.40;5.53;;;1.50;99.90;;;;;;5090918;28;20028;-77
2022/03/23 00:47:44;;;;;;;13.02;5.38;;;1.50;99.90;;;;;;5090882;28;20021;-78
2022/03/23 00:50:09;;;;;;;9.52;5.07;;;1.40;99.90;;;;;;5093351;28;20197;-76
2022/03/23 00:52:37;;;;;;;14.15;5.70;;;1.30;99.90;;;;;;5093377;28;20044;-77
2022/03/23 00:55:04;;;;;;;11.90;5.78;;;1.20;99.90;;;;;;5076074;28;20032;-77
2022/03/23 00:57:29;;;;;;;11.35;5.82;;;1.10;99.90;;;;;;5094440;28;20103;-77
2022/03/23 00:59:55;;;;;;;12.50;6.15;;;1.20;99.90;;;;;;5094937;28;20085;-77
2022/03/23 01:02:21;;;;;;;17.75;6.10;;;1.10;99.90;;;;;;5083072;28;20025;-77
2022/03/23 01:04:47;;;;;;;14.15;5.13;;;1.00;99.90;;;;;;5072689;28;20047;-77
2022/03/23 01:07:12;;;;;;;12.57;5.18;;;0.90;99.90;;;;;;5069775;28;20017;-77
2022/03/23 01:09:38;;;;;;;11.32;4.85;;;0.70;99.90;;;;;;5068802;28;20038;-76
2022/03/23 01:12:04;;;;;;;7.85;4.00;;;0.70;99.90;;;;;;5069395;28;20025;-77
2022/03/23 01:14:30;;;;;;;12.93;5.38;;;0.80;99.90;;;;;;5070280;28;20501;-77
2022/03/23 01:16:55;;;;;;;13.85;5.63;;;0.90;99.90;;;;;;5070318;28;20018;-77
2022/03/23 01:19:25;;;;;;;17.98;7.18;;;0.90;99.90;;;;;;5069248;28;20028;-77
2022/03/23 01:21:51;;;;;;;21.30;6.93;;;1.00;99.90;;;;;;5049970;28;20024;-77
2022/03/23 01:24:17;;;;;;;11.60;5.70;;;1.10;99.90;;;;;;5050276;28;20082;-77
2022/03/23 01:26:43;;;;;;;8.88;5.47;;;1.10;99.90;;;;;;5067917;28;20021;-77
2022/03/23 01:29:09;;;;;;;14.15;5.65;;;1.10;99.90;;;;;;5068275;28;20024;-77
2022/03/23 01:31:34;;;;;;;18.83;7.18;;;1.00;99.90;;;;;;5068235;28;20268;-76
2022/03/23 01:34:00;;;;;;;13.25;6.03;;;1.10;99.90;;;;;;5067790;28;20060;-76
2022/03/23 01:36:30;;;;;;;13.02;6.28;;;1.00;99.90;;;;;;5069809;28;20029;-77
2022/03/23 01:38:57;;;;;;;13.13;5.38;;;0.80;99.90;;;;;;5051541;28;20067;-77
2022/03/23 01:41:24;;;;;;;14.32;5.75;;;0.70;99.90;;;;;;5069501;28;20100;-77
2022/03/23 01:43:50;;;;;;;16.08;5.40;;;0.50;99.90;;;;;;5069626;28;20021;-77
2022/03/23 01:46:20;;;;;;;15.18;6.57;;;0.30;99.90;;;;;;5069480;28;20111;-78
2022/03/23 01:48:46;;;;;;;11.32;5.95;;;0.10;99.90;;;;;;5069678;28;20077;-76
2022/03/23 01:51:14;;;;;;;11.70;5.57;;;0.00;99.90;;;;;;5069469;28;20115;-78
2022/03/23 01:53:40;;;;;;;12.05;5.63;;;0.10;99.90;;;;;;5069232;28;20045;-76
2022/03/23 01:56:09;;;;;;;10.00;4.68;;;0.20;99.90;;;;;;5069651;28;20047;-77
2022/03/23 01:58:36;;;;;;;15.93;6.15;;;0.10;99.90;;;;;;5069416;28;20021;-76
2022/03/23 02:01:02;;;;;;;13.48;5.72;;;0.20;99.90;;;;;;5069338;28;20020;-77
2022/03/23 02:03:28;;;;;;;12.23;5.13;;;0.10;99.90;;;;;;5069670;28;20032;-77
2022/03/23 02:05:54;;;;;;;17.38;6.40;;;0.00;99.90;;;;;;5069786;28;20024;-77
2022/03/23 02:08:19;;;;;;;10.40;4.80;;;-0.10;99.90;;;;;;5069275;28;20106;-76
2022/03/23 02:10:45;;;;;;;11.95;5.63;;;-0.10;99.90;;;;;;5069662;28;20020;-77
2022/03/23 02:13:11;;;;;;;12.90;7.03;;;-0.10;99.90;;;;;;5051601;28;20033;-77
2022/03/23 02:15:38;;;;;;;14.82;6.18;;;0.00;99.90;;;;;;5069590;28;20056;-77
2022/03/23 02:18:06;;;;;;;13.30;6.38;;;0.00;99.90;;;;;;5069222;28;20027;-77
2022/03/23 02:20:32;;;;;;;12.95;5.47;;;-0.10;99.90;;;;;;5069272;28;20024;-77
2022/03/23 02:22:58;;;;;;;14.70;5.97;;;-0.10;99.90;;;;;;5069113;28;20100;-77
2022/03/23 02:25:26;;;;;;;13.25;5.07;;;-0.20;99.90;;;;;;5069254;28;20099;-77
2022/03/23 02:27:54;;;;;;;19.50;7.15;;;-0.30;99.90;;;;;;5069509;28;20043;-77
2022/03/23 02:30:20;;;;;;;14.10;5.72;;;-0.30;99.90;;;;;;5069297;28;20059;-77
2022/03/23 02:32:46;;;;;;;14.40;5.90;;;-0.30;99.90;;;;;;5051161;28;20060;-77
2022/03/23 02:35:12;;;;;;;16.60;6.18;;;-0.40;99.90;;;;;;5069037;28;20071;-76
2022/03/23 02:37:39;;;;;;;14.27;6.22;;;-0.40;99.90;;;;;;5069032;28;20306;-76
2022/03/23 02:40:06;;;;;;;15.73;6.88;;;-0.20;99.90;;;;;;5069186;28;20025;-76
2022/03/23 02:42:31;;;;;;;17.90;5.88;;;-0.60;99.90;;;;;;5069152;28;20060;-77
2022/03/23 02:44:57;;;;;;;13.93;5.95;;;-0.10;99.90;;;;;;5069394;28;20055;-77
2022/03/23 02:47:23;;;;;;;14.45;5.47;;;-0.60;99.90;;;;;;5072056;28;20028;-77
2022/03/23 02:49:48;;;;;;;14.27;6.03;;;-0.30;99.90;;;;;;5073215;28;20074;-75
2022/03/23 02:52:14;;;;;;;16.15;7.03;;;-0.30;99.90;;;;;;5072524;28;20045;-76
2022/03/23 03:03:27;;;;;;;12.82;5.57;;;-0.30;99.90;;;;;;5072811;28;20040;-77
2022/03/23 03:05:53;;;;;;;15.27;6.60;;;-0.20;99.90;;;;;;5072839;28;20024;-77
2022/03/23 03:11:03;;;;;;;11.55;5.47;;;-0.30;99.90;;;;;;5073045;28;20487;-78
2022/03/23 03:13:30;;;;;;;13.98;5.60;;;-0.40;99.90;;;;;;5072535;28;20104;-76
2022/03/23 03:16:03;;;;;;;14.07;5.32;;;-0.20;99.90;;;;;;5072616;28;20020;-75
2022/03/23 03:18:33;;;;;;;12.93;6.32;;;-0.40;99.90;;;;;;5072560;28;20443;-77
2022/03/23 03:21:06;;;;;;;16.45;5.40;;;0.90;99.90;;;;;;5072777;28;20089;-77
2022/03/23 03:23:33;;;;;;;12.82;5.70;;;-0.20;99.90;;;;;;5072391;28;20284;-77
2022/03/23 03:26:01;;;;;;;13.38;5.75;;;-0.30;99.90;;;;;;5072344;28;20384;-77
2022/03/23 03:28:28;;;;;;;13.10;5.25;;;-0.30;99.90;;;;;;5072156;28;20032;-77
2022/03/23 03:30:53;;;;;;;13.13;5.80;;;-0.40;99.90;;;;;;5080376;28;20020;-77
2022/03/23 03:33:19;;;;;;;16.50;6.53;;;-0.50;99.90;;;;;;5073950;28;20039;-77
2022/03/23 03:35:45;;;;;;;10.25;5.15;;;-0.50;99.90;;;;;;5084330;28;20032;-77
2022/03/23 03:38:10;;;;;;;13.45;5.97;;;-0.50;99.90;;;;;;5071985;28;20016;-78
2022/03/23 03:40:36;;;;;;;15.95;5.63;;;-0.50;99.90;;;;;;5058862;28;20492;-77
2022/03/23 03:43:02;;;;;;;11.90;5.57;;;-0.30;99.90;;;;;;5092233;28;20496;-78
2022/03/23 03:45:28;;;;;;;11.30;5.10;;;-0.50;99.90;;;;;;5092198;28;20113;-78
2022/03/23 03:47:54;;;;;;;10.00;5.68;;;-0.60;99.90;;;;;;5090855;28;20181;-76
2022/03/23 03:50:20;;;;;;;15.45;6.60;;;0.00;99.90;;;;;;5053904;28;20035;-77
2022/03/23 03:52:45;;;;;;;12.98;5.07;;;-0.50;99.90;;;;;;5053498;28;20508;-78
2022/03/23 03:55:11;;;;;;;10.35;5.70;;;-0.30;99.90;;;;;;5071671;28;20036;-77
2022/03/23 03:57:37;;;;;;;16.02;6.82;;;-0.60;99.90;;;;;;5053630;28;20051;-77
2022/03/23 04:00:05;;;;;;;12.20;6.10;;;0.00;99.90;;;;;;5071845;28;20035;-77
2022/03/23 04:02:31;;;;;;;16.20;5.70;;;-0.70;99.90;;;;;;5071616;28;20021;-77
2022/03/23 04:04:56;;;;;;;14.20;6.68;;;-0.60;99.90;;;;;;5071548;28;20388;-77
2022/03/23 04:07:22;;;;;;;12.40;6.05;;;-0.60;99.90;;;;;;5062593;28;20024;-77
2022/03/23 04:09:48;;;;;;;11.63;6.00;;;-0.40;99.90;;;;;;5090412;28;20028;-77
2022/03/23 04:12:13;;;;;;;14.52;5.47;;;-0.60;99.90;;;;;;5091663;28;20027;-77
2022/03/23 04:14:39;;;;;;;14.82;5.72;;;-0.40;99.90;;;;;;5092141;28;20488;-77
2022/03/23 04:17:05;;;;;;;11.43;5.65;;;-0.30;99.90;;;;;;5091523;28;20419;-78
2022/03/23 04:19:31;;;;;;;11.98;5.43;;;-0.80;99.90;;;;;;5091491;28;20495;-77
2022/03/23 04:21:56;;;;;;;14.02;5.70;;;-0.40;99.90;;;;;;5091480;28;20108;-77
2022/03/23 04:24:22;;;;;;;12.98;5.78;;;-0.40;99.90;;;;;;5091514;28;20079;-77
2022/03/23 04:26:48;;;;;;;13.07;6.35;;;-0.60;99.90;;;;;;5091263;28;20047;-77
2022/03/23 04:29:14;;;;;;;11.90;5.80;;;-0.90;99.90;;;;;;5091203;28;20027;-77
2022/03/23 04:31:39;;;;;;;13.82;6.47;;;-0.20;99.90;;;;;;5091780;28;20027;-77
2022/03/23 04:34:05;;;;;;;13.13;6.15;;;-1.10;99.90;;;;;;5091461;28;20085;-77
2022/03/23 04:36:31;;;;;;;17.23;5.43;;;-1.10;99.90;;;;;;5091087;28;20050;-77
2022/03/23 04:38:57;;;;;;;13.35;5.95;;;-1.20;99.90;;;;;;5091113;28;20174;-77
2022/03/23 04:41:22;;;;;;;21.55;6.43;;;0.70;99.90;;;;;;5091012;28;20103;-77
2022/03/23 04:43:48;;;;;;;12.73;6.38;;;-1.30;99.90;;;;;;5091500;28;20024;-78
2022/03/23 04:46:14;;;;;;;13.25;6.00;;;-1.40;99.90;;;;;;5073219;28;20024;-76
2022/03/23 04:48:39;;;;;;;11.35;6.28;;;-1.40;99.90;;;;;;5090967;28;20020;-77
2022/03/23 04:51:05;;;;;;;15.65;6.22;;;-0.80;99.90;;;;;;5091064;28;20054;-76
2022/03/23 04:53:31;;;;;;;13.43;6.97;;;-0.50;99.90;;;;;;5090951;28;20116;-76
2022/03/23 04:55:57;;;;;;;15.52;6.13;;;-0.40;99.90;;;;;;5091077;28;20073;-78
2022/03/23 04:58:24;;;;;;;14.40;7.22;;;-0.20;99.90;;;;;;5072786;28;20032;-77
2022/03/23 05:00:50;;;;;;;15.75;6.50;;;-1.40;99.90;;;;;;5090777;28;20058;-77
2022/03/23 05:03:15;;;;;;;14.32;6.00;;;-0.40;99.90;;;;;;5090798;28;20043;-77
2022/03/23 05:05:41;;;;;;;15.38;5.80;;;-1.30;99.90;;;;;;5090662;28;20031;-78
2022/03/23 05:08:07;;;;;;;10.45;5.28;;;-1.20;99.90;;;;;;5090573;28;20024;-76
2022/03/23 05:10:33;;;;;;;18.23;6.80;;;-0.40;99.90;;;;;;5090055;28;20031;-77
2022/03/23 05:12:59;;;;;;;21.70;6.53;;;-1.20;99.90;;;;;;5090647;28;20746;-77
2022/03/23 05:15:24;;;;;;;20.70;7.13;;;-0.30;99.90;;;;;;5090305;28;20047;-76
2022/03/23 05:17:50;;;;;;;15.38;5.95;;;-1.30;99.90;;;;;;5090705;28;20046;-77
2022/03/23 05:20:18;;;;;;;16.77;7.38;;;-0.30;99.90;;;;;;5090486;28;20270;-77
2022/03/23 05:22:45;;;;;;;17.88;6.53;;;-0.40;99.90;;;;;;5090130;28;20017;-77
2022/03/23 05:25:12;;;;;;;18.02;7.18;;;-0.20;99.90;;;;;;5090438;28;20024;-77
2022/03/23 05:27:40;;;;;;;16.02;7.15;;;-1.10;99.90;;;;;;5072381;28;20189;-77
2022/03/23 05:30:08;;;;;;;16.30;6.05;;;-0.30;99.90;;;;;;5090391;28;20169;-77
2022/03/23 05:32:35;;;;;;;18.90;5.93;;;-1.50;99.90;;;;;;5072204;28;20594;-77
2022/03/23 05:35:01;;;;;;;13.23;6.15;;;-1.60;99.90;;;;;;5094895;28;20058;-77
2022/03/23 05:37:26;;;;;;;25.35;7.40;;;-1.60;99.90;;;;;;5101489;28;20012;-76
2022/03/23 05:39:52;;;;;;;18.63;6.85;;;-1.60;99.90;;;;;;5101408;28;20035;-78
2022/03/23 05:42:18;;;;;;;19.70;6.72;;;-1.50;99.90;;;;;;5101346;28;20268;-77
2022/03/23 05:44:45;;;;;;;17.88;6.68;;;-0.10;99.90;;;;;;5100515;28;20096;-77
2022/03/23 05:47:10;;;;;;;14.25;6.65;;;-0.10;99.90;;;;;;5099621;28;20061;-77
2022/03/23 05:49:37;;;;;;;15.35;5.57;;;-0.20;99.90;;;;;;5100007;28;20028;-77
2022/03/23 05:52:03;;;;;;;11.55;6.10;;;-0.20;99.90;;;;;;5099542;28;20286;-76
2022/03/23 05:54:29;;;;;;;15.57;5.85;;;-1.20;99.90;;;;;;5081339;28;20063;-77
2022/03/23 05:56:55;;;;;;;9.75;5.45;;;0.00;99.90;;;;;;5099567;28;20203;-77
2022/03/23 05:59:20;;;;;;;23.23;6.00;;;-0.20;99.90;;;;;;5099803;28;20192;-76
2022/03/23 06:01:46;;;;;;;12.88;6.10;;;-1.20;99.90;;;;;;5098744;28;20051;-77
2022/03/23 06:04:12;;;;;;;12.82;6.95;;;-0.30;99.90;;;;;;5100097;28;20243;-77
2022/03/23 06:06:38;;;;;;;15.55;7.80;;;-1.00;99.90;;;;;;5099404;28;20031;-77
2022/03/23 06:09:05;;;;;;;14.43;5.68;;;-0.10;99.90;;;;;;5081124;28;20020;-77
2022/03/23 06:11:30;;;;;;;12.55;5.80;;;-0.40;99.90;;;;;;5093153;28;20101;-77
2022/03/23 06:13:57;;;;;;;23.83;8.30;;;-0.20;99.90;;;;;;5089683;28;20055;-77
2022/03/23 06:16:23;;;;;;;13.52;6.00;;;0.20;99.90;;;;;;5089803;28;20038;-77
2022/03/23 06:18:48;;;;;;;17.45;6.80;;;0.40;99.90;;;;;;5090137;28;20107;-77
2022/03/23 06:21:14;;;;;;;16.58;6.13;;;0.60;99.90;;;;;;5094537;28;20357;-77
2022/03/23 06:23:40;;;;;;;16.63;6.40;;;0.90;99.90;;;;;;5098912;28;20047;-77
2022/03/23 06:26:06;;;;;;;14.70;6.15;;;1.10;99.90;;;;;;5081538;28;20024;-77
2022/03/23 06:28:32;;;;;;;12.15;5.03;;;1.60;99.90;;;;;;5071512;28;20099;-77
2022/03/23 06:30:58;;;;;;;14.40;6.25;;;1.90;99.90;;;;;;5053494;28;20021;-77
2022/03/23 06:33:24;;;;;;;15.02;6.05;;;2.00;99.90;;;;;;5071873;28;20492;-79
2022/03/23 06:35:49;;;;;;;12.18;6.45;;;2.00;99.90;;;;;;5073034;28;20119;-77
2022/03/23 06:38:15;;;;;;;14.20;6.20;;;2.00;99.90;;;;;;5074716;28;20024;-77
2022/03/23 06:40:41;;;;;;;15.75;6.15;;;2.10;99.90;;;;;;5074359;28;20060;-76
2022/03/23 06:43:07;;;;;;;13.90;5.78;;;2.20;99.90;;;;;;5055046;28;20017;-77
2022/03/23 06:45:33;;;;;;;12.25;6.15;;;2.30;99.90;;;;;;5073385;28;20024;-77
2022/03/23 06:47:58;;;;;;;15.80;6.45;;;2.30;99.90;;;;;;5073103;28;20463;-76
2022/03/23 06:50:25;;;;;;;18.27;6.30;;;2.50;99.90;;;;;;5072959;28;20032;-77
2022/03/23 06:52:51;;;;;;;16.70;6.65;;;2.50;99.90;;;;;;5072514;28;20049;-77
2022/03/23 06:55:16;;;;;;;13.40;6.35;;;2.70;99.90;;;;;;5062255;28;20044;-77
2022/03/23 06:57:42;;;;;;;20.75;7.47;;;2.70;99.90;;;;;;5060477;28;20029;-76
2022/03/23 07:00:15;;;;;;;14.43;6.30;;;2.80;99.90;;;;;;5058145;28;20538;-79
2022/03/23 07:02:45;;;;;;;17.05;6.47;;;2.90;99.90;;;;;;5055709;28;20021;-79
2022/03/23 07:05:12;;;;;;;12.93;5.97;;;3.00;99.90;;;;;;5056574;28;20071;-78
2022/03/23 07:07:38;;;;;;;16.35;6.50;;;3.20;99.90;;;;;;5054976;28;20029;-79
2022/03/23 07:10:05;;;;;;;14.93;6.03;;;3.40;99.90;;;;;;5054689;28;20485;-79
2022/03/23 07:12:31;;;;;;;14.80;6.38;;;3.80;99.90;;;;;;5055014;28;20079;-79
2022/03/23 07:14:57;;;;;;;15.38;6.07;;;4.00;99.90;;;;;;5055051;28;20040;-78
2022/03/23 07:17:23;;;;;;;18.40;6.68;;;4.10;99.90;;;;;;5056897;28;20071;-78
2022/03/23 07:19:49;;;;;;;13.40;6.88;;;4.20;99.90;;;;;;5052409;28;20469;-78
2022/03/23 07:22:15;;;;;;;15.88;6.47;;;4.40;99.90;;;;;;5052683;28;20017;-78
2022/03/23 07:24:42;;;;;;;25.58;8.15;;;4.50;99.90;;;;;;5050497;28;20107;-79
2022/03/23 07:27:08;;;;;;;17.27;6.32;;;4.70;99.90;;;;;;5051594;28;20028;-78
2022/03/23 07:29:35;;;;;;;22.95;7.68;;;4.90;99.90;;;;;;5051928;28;20096;-79
2022/03/23 07:32:01;;;;;;;26.42;10.40;;;5.10;99.90;;;;;;5052086;28;20024;-79
2022/03/23 07:34:26;;;;;;;24.33;11.45;;;5.30;99.90;;;;;;5051569;28;20033;-79
2022/03/23 07:36:52;;;;;;;23.75;9.20;;;5.60;99.90;;;;;;5053818;28;20095;-77
2022/03/23 07:39:21;;;;;;;14.57;7.03;;;5.80;99.90;;;;;;5049843;28;20115;-78
2022/03/23 07:41:52;;;;;;;15.18;7.72;;;6.00;99.90;;;;;;5050318;28;20021;-80
2022/03/23 07:44:18;;;;;;;16.33;8.07;;;6.20;99.90;;;;;;5048671;28;20485;-79
2022/03/23 07:46:47;;;;;;;16.98;7.07;;;6.30;99.90;;;;;;5066264;28;20477;-79
2022/03/23 07:49:14;;;;;;;21.23;7.90;;;6.40;99.90;;;;;;5051669;28;20663;-79
2022/03/23 07:51:40;;;;;;;19.00;7.57;;;6.50;99.90;;;;;;5054476;28;20056;-80
2022/03/23 07:54:06;;;;;;;19.30;6.80;;;6.60;99.90;;;;;;5068676;28;20047;-77
2022/03/23 07:56:34;;;;;;;23.63;7.20;;;6.90;99.90;;;;;;5068964;28;20029;-76
2022/03/23 07:58:59;;;;;;;18.10;7.03;;;7.10;99.90;;;;;;5069618;28;20032;-77
2022/03/23 08:01:25;;;;;;;16.30;7.60;;;7.40;99.90;;;;;;5068658;28;20033;-76
2022/03/23 08:03:51;;;;;;;16.55;7.97;;;7.60;99.90;;;;;;5068745;28;20077;-76
2022/03/23 08:06:17;;;;;;;13.45;6.75;;;7.80;99.90;;;;;;5068237;28;20330;-76
2022/03/23 08:08:42;;;;;;;15.52;7.38;;;8.10;99.90;;;;;;5065662;28;20060;-76
2022/03/23 08:11:08;;;;;;;13.63;6.03;;;8.20;99.90;;;;;;5068546;28;20056;-76
2022/03/23 08:13:34;;;;;;;15.10;5.95;;;8.50;99.70;;;;;;5067661;28;20299;-76
2022/03/23 08:16:04;;;;;;;11.40;6.88;;;8.70;95.70;;;;;;5068821;28;20552;-78
2022/03/23 08:18:30;;;;;;;16.13;6.07;;;8.80;97.10;;;;;;5068963;28;20424;-78
2022/03/23 08:20:55;;;;;;;9.98;6.43;;;9.00;94.90;;;;;;5070475;28;20037;-79
2022/03/23 08:23:21;;;;;;;14.40;6.38;;;9.30;90.50;;;;;;5055365;28;20031;-75
2022/03/23 08:25:47;;;;;;;13.48;6.38;;;9.40;88.90;;;;;;5071700;28;20067;-81
2022/03/23 08:28:17;;;;;;;11.07;5.68;;;9.60;87.20;;;;;;5071691;28;20028;-79
2022/03/23 08:30:45;;;;;;;10.45;6.03;;;9.80;89.70;;;;;;5053956;28;20025;-80
2022/03/23 08:33:11;;;;;;;12.98;5.70;;;9.90;87.50;;;;;;5054136;28;20029;-82
2022/03/23 08:35:37;;;;;;;18.27;5.60;;;9.90;82.60;;;;;;5071061;28;20554;-79
2022/03/23 08:38:04;;;;;;;16.80;6.65;;;10.00;85.40;;;;;;5070367;28;20445;-79
2022/03/23 08:40:31;;;;;;;10.95;5.55;;;10.10;83.40;;;;;;5070853;28;20021;-77
2022/03/23 08:42:58;;;;;;;10.60;5.22;;;10.30;83.60;;;;;;5068388;28;20024;-79
2022/03/23 08:45:24;;;;;;;11.23;5.40;;;10.40;82.80;;;;;;5071860;28;20099;-77
2022/03/23 08:47:50;;;;;;;10.25;5.63;;;10.70;79.10;;;;;;5053529;28;20024;-78
2022/03/23 08:50:17;;;;;;;13.05;6.32;;;10.90;79.90;;;;;;5073765;28;20077;-79
2022/03/23 08:52:43;;;;;;;10.63;5.70;;;10.90;76.80;;;;;;5071639;28;20105;-79
2022/03/23 08:55:14;;;;;;;11.35;5.25;;;10.80;75.30;;;;;;5072176;28;20028;-79
2022/03/23 08:57:41;;;;;;;13.95;6.10;;;10.90;73.60;;;;;;5055019;28;20032;-78
2022/03/23 09:00:08;;;;;;;14.02;6.05;;;10.80;75.40;;;;;;5056032;28;20078;-79
2022/03/23 09:02:34;;;;;;;11.98;5.95;;;10.90;79.10;;;;;;5074066;28;20028;-79
2022/03/23 09:04:59;;;;;;;13.57;6.53;;;10.90;75.40;;;;;;5053498;28;20031;-77
2022/03/23 09:07:25;;;;;;;11.38;5.97;;;11.00;73.50;;;;;;5070091;28;20028;-79
2022/03/23 09:09:51;;;;;;;15.60;6.10;;;11.00;73.50;;;;;;5054890;28;20544;-79
2022/03/23 09:12:17;;;;;;;16.55;7.18;;;11.10;74.50;;;;;;5069414;28;20021;-80
2022/03/23 09:14:42;;;;;;;15.02;7.18;;;11.20;75.80;;;;;;5051241;28;20119;-80
2022/03/23 09:17:08;;;;;;;13.07;6.75;;;11.00;72.60;;;;;;5049978;28;20548;-79
2022/03/23 09:19:34;;;;;;;11.98;6.30;;;10.90;73.80;;;;;;5049901;28;20066;-80
2022/03/23 09:22:01;;;;;;;10.98;5.95;;;11.10;73.10;;;;;;5068407;28;20477;-81
2022/03/23 09:24:33;;;;;;;10.80;6.45;;;11.10;74.20;;;;;;5051632;28;20242;-80
2022/03/23 09:26:59;;;;;;;13.98;6.97;;;11.30;73.60;;;;;;5067714;28;20025;-81
2022/03/23 09:29:25;;;;;;;17.10;6.43;;;11.40;73.70;;;;;;5067527;28;20032;-80
2022/03/23 09:31:50;;;;;;;19.45;7.40;;;12.20;70.30;;;;;;5052088;28;20074;-80
2022/03/23 09:34:16;;;;;;;16.17;7.18;;;11.90;71.20;;;;;;5067945;28;20037;-79
2022/03/23 09:39:26;;;;;;;16.10;7.57;;;11.90;67.70;;;;;;5070748;28;20094;-80
2022/03/23 09:41:56;;;;;;;13.38;7.03;;;11.70;68.40;;;;;;5071265;28;20041;-78
2022/03/23 09:44:24;;;;;;;;;;;11.10;67.20;;;;;;5068278;28;20051;-79
2022/03/23 09:46:49;;;;;;;15.52;7.35;;;11.70;68.20;;;;;;5049815;28;19923;-79
2022/03/23 09:49:15;;;;;;;14.93;7.50;;;11.80;68.50;;;;;;5066743;28;20024;-79
2022/03/23 09:51:42;;;;;;;16.10;7.25;;;11.80;68.40;;;;;;5039166;28;20041;-79
2022/03/23 09:54:08;;;;;;;13.55;7.65;;;12.00;67.70;;;;;;5025580;28;20033;-79
2022/03/23 09:56:33;;;;;;;18.73;7.47;;;12.10;66.80;;;;;;5027187;28;20049;-81
2022/03/23 09:59:02;;;;;;;19.55;7.10;;;12.00;66.80;;;;;;5027301;28;20319;-80
2022/03/23 10:01:28;;;;;;;18.75;7.40;;;12.10;66.60;;;;;;5026189;28;20026;-80
2022/03/23 10:04:12;;;;;;;16.58;7.80;;;12.10;66.70;;;;;;5042285;28;20037;-80
2022/03/23 10:07:45;;;;;;;16.88;8.38;;;12.10;65.40;;;;;;5026732;28;20025;-79
2022/03/23 10:10:38;;;;;;;17.30;8.35;;;12.10;65.40;;;;;;4944511;28;20530;-79
2022/03/23 10:13:33;;;;;;;16.98;7.90;;;12.30;65.10;;;;;;5029322;28;20105;-80
2022/03/23 10:16:17;;;;;;;19.10;9.10;;;12.50;65.80;;;;;;5022231;28;20052;-79
2022/03/23 10:18:55;;;;;;;14.90;8.00;;;12.20;65.10;;;;;;5047312;28;20484;-79
2022/03/23 10:21:28;;;;;;;15.80;7.05;;;12.50;65.40;;;;;;5025440;28;20464;-79
2022/03/23 10:24:00;;;;;;;19.83;8.98;;;12.70;66.40;;;;;;5046780;28;20048;-79
2022/03/23 10:26:27;;;;;;;16.08;7.32;;;12.80;65.70;;;;;;5046417;28;20025;-79
2022/03/23 10:28:54;;;;;;;18.05;8.98;;;12.90;64.50;;;;;;5046218;28;20020;-79
2022/03/23 10:31:25;;;;;;;17.65;8.80;;;12.70;63.80;;;;;;5028791;28;20036;-77
2022/03/23 10:34:08;;;;;;;23.15;9.57;;;12.60;63.50;;;;;;5048749;28;20115;-80
2022/03/23 10:36:54;;;;;;;17.23;8.55;;;12.70;63.90;;;;;;5047008;28;20061;-79
2022/03/23 10:39:27;;;;;;;16.35;8.80;;;13.10;65.10;;;;;;5047824;28;20029;-78
2022/03/23 10:41:58;;;;;;;16.85;8.00;;;13.10;63.20;;;;;;5048331;28;20075;-78
2022/03/23 10:44:26;;;;;;;23.33;9.27;;;12.90;62.40;;;;;;5049262;28;20446;-78
2022/03/23 10:46:53;;;;;;;19.33;9.77;;;13.00;63.90;;;;;;5049203;28;20104;-77
2022/03/23 10:49:38;;;;;;;17.85;8.65;;;13.10;61.60;;;;;;5048902;28;20504;-78
2022/03/23 10:52:28;;;;;;;15.73;7.68;;;13.00;63.30;;;;;;5037345;28;20493;-78
2022/03/23 10:55:15;;;;;;;17.92;8.65;;;13.10;62.70;;;;;;5048437;28;20216;-81
2022/03/23 10:57:46;;;;;;;18.00;7.93;;;13.30;62.50;;;;;;5046878;28;20021;-79
2022/03/23 11:00:19;;;;;;;16.35;8.27;;;13.20;62.80;;;;;;5049008;28;20073;-79
2022/03/23 11:02:47;;;;;;;19.50;8.32;;;13.40;63.50;;;;;;5048346;28;20032;-80
2022/03/23 11:05:49;;;;;;;17.77;8.30;;;13.70;63.10;;;;;;5030752;28;20021;-79
2022/03/23 11:08:25;;;;;;;18.90;7.63;;;13.70;62.50;;;;;;5049032;28;20014;-79
2022/03/23 11:16:31;;;;;;;17.90;7.93;;;14.00;63.20;;;;;;5052037;28;20090;-79
2022/03/23 11:19:10;;;;;;;20.55;9.15;;;14.10;63.30;;;;;;5032887;28;20033;-78
2022/03/23 11:22:04;;;;;;;23.20;7.90;;;14.10;62.90;;;;;;5051061;28;20222;-80
2022/03/23 11:24:45;;;;;;;18.05;8.45;;;14.20;61.30;;;;;;5032836;28;20118;-79
2022/03/23 11:27:13;;;;;;;18.60;7.90;;;14.20;59.70;;;;;;5035304;28;20049;-81
2022/03/23 11:29:40;;;;;;;16.75;9.02;;;14.10;60.60;;;;;;5052932;28;20086;-79
2022/03/23 11:32:12;;;;;;;20.02;9.55;;;14.30;60.10;;;;;;5056818;28;20045;-80
2022/03/23 11:34:39;;;;;;;19.38;10.07;;;14.10;59.20;;;;;;5059967;28;20082;-79
2022/03/23 11:37:07;;;;;;;17.60;8.93;;;14.30;60.70;;;;;;5034494;28;20203;-79
2022/03/23 11:39:34;;;;;;;20.20;8.10;;;14.30;60.40;;;;;;5031883;28;20385;-78
2022/03/23 11:42:02;;;;;;;17.33;8.80;;;14.50;60.20;;;;;;5048866;28;20394;-79
2022/03/23 11:44:28;;;;;;;25.20;10.70;;;14.70;58.80;;;;;;5042169;28;20025;-79
2022/03/23 11:47:21;;;;;;;18.55;9.35;;;14.70;58.90;;;;;;5047199;28;20025;-79
2022/03/23 11:50:01;;;;;;;19.65;8.90;;;14.50;59.20;;;;;;5052057;28;20055;-78
2022/03/23 11:52:37;;;;;;;21.50;9.43;;;14.60;58.80;;;;;;5066486;28;20443;-78
2022/03/23 11:55:37;;;;;;;19.90;9.85;;;14.70;58.90;;;;;;5050396;28;20366;-79
2022/03/23 11:58:18;;;;;;;18.58;8.70;;;14.70;58.70;;;;;;5050731;28;20032;-78
2022/03/23 12:00:55;;;;;;;20.30;10.63;;;14.80;59.00;;;;;;5050801;28;20029;-78
2022/03/23 12:03:50;;;;;;;24.67;9.80;;;14.90;58.50;;;;;;5068405;28;20028;-78
2022/03/23 12:06:20;;;;;;;19.95;9.45;;;15.10;57.30;;;;;;5050117;28;20032;-78
2022/03/23 12:08:50;;;;;;;18.83;10.27;;;15.30;56.20;;;;;;5068522;28;20027;-78
2022/03/23 12:11:34;;;;;;;19.58;9.40;;;16.60;54.80;;;;;;5069379;28;20027;-78
2022/03/23 12:14:01;;;;;;;20.73;10.25;;;17.30;54.00;;;;;;5068757;28;20123;-78
2022/03/23 12:16:45;;;;;;;23.48;10.43;;;17.20;54.20;;;;;;5068145;28;20025;-78
2022/03/23 12:19:16;;;;;;;21.55;10.15;;;17.20;52.00;;;;;;5068082;28;20024;-78
2022/03/23 12:21:57;;;;;;;24.70;10.88;;;17.20;51.10;;;;;;5068157;28;20598;-77
2022/03/23 12:24:34;;;;;;;17.65;9.45;;;17.30;51.60;;;;;;5049929;28;20476;-79
2022/03/23 12:27:07;;;;;;;23.00;10.13;;;17.10;53.20;;;;;;5067866;28;20476;-78
2022/03/23 12:29:36;;;;;;;19.67;10.55;;;17.40;51.80;;;;;;5067918;28;20530;-79
2022/03/23 12:32:06;;;;;;;;;;;17.80;50.50;;;;;;5068185;28;20027;-79
2022/03/23 12:34:37;;;;;;;21.80;9.93;;;18.00;51.20;;;;;;5049740;28;20248;-79
2022/03/23 12:37:12;;;;;;;17.85;10.00;;;18.20;49.50;;;;;;5063928;28;20418;-79
2022/03/23 12:39:46;;;;;;;20.67;10.77;;;18.30;47.80;;;;;;5040780;28;20617;-78
2022/03/23 12:42:12;;;;;;;20.13;10.18;;;19.00;47.60;;;;;;5049603;28;20036;-79
2022/03/23 12:45:04;;;;;;;18.42;10.85;;;19.50;47.00;;;;;;5049343;28;20073;-80
2022/03/23 12:47:31;;;;;;;19.88;11.35;;;20.10;46.20;;;;;;5067364;28;20048;-79
2022/03/23 12:58:30;;;;;;;21.25;10.13;;;19.70;44.60;;;;;;5067335;28;20195;-80
2022/03/23 13:01:12;;;;;;;15.65;9.10;;;19.60;44.30;;;;;;5066826;28;20089;-79
2022/03/23 13:03:38;;;;;;;20.73;10.52;;;20.20;43.50;;;;;;5065762;28;20027;-80
2022/03/23 13:06:14;;;;;;;19.52;10.68;;;20.70;42.50;;;;;;5049094;28;20440;-79
2022/03/23 13:08:48;;;;;;;17.55;10.07;;;21.40;42.00;;;;;;5066093;28;20025;-79
2022/03/23 13:11:18;;;;;;;18.05;9.85;;;20.90;41.80;;;;;;5047716;28;20496;-78
2022/03/23 13:13:49;;;;;;;17.10;11.05;;;20.90;42.60;;;;;;5045339;28;20033;-80
2022/03/23 13:16:23;;;;;;;22.65;11.15;;;21.00;42.90;;;;;;5046164;28;20170;-79